ADDS METAR Data INFO
IDs: Format: Raw Decoded Include TAF

Data at: 1152 UTC 23 Jun 2018

KVER 231135Z AUTO 20004KT 10SM SCT050 19/ A2981 RMK AO2 T0187
KVER 231115Z AUTO 00000KT 10SM OVC050 19/ A2980 RMK AO2 T0186
KVER 231055Z AUTO 00000KT 10SM OVC050 19/ A2981 RMK AO2 P0001 T0185
KVER 231035Z AUTO 00000KT 10SM OVC050 19/ A2980 RMK AO2 P0001 T0185
KVER 231015Z AUTO 00000KT 10SM BKN050 18/ A2981 RMK AO2 T0183
KVER 230955Z AUTO 00000KT 10SM CLR 18/ A2979 RMK AO2 T0182
KVER 230935Z AUTO 00000KT 10SM CLR 19/ A2977 RMK AO2 T0188
KVER 230915Z AUTO 02003KT 10SM BKN050 19/ A2976 RMK AO2 T0192
KVER 230855Z AUTO 00000KT 10SM OVC050 20/ A2977 RMK AO2 60001 T0195
KVER 230835Z AUTO 00000KT 10SM OVC050 20/ A2977 RMK AO2 T0196
KVER 230815Z AUTO 00000KT 10SM OVC050 20/ A2978 RMK AO2 T0197
KVER 230755Z AUTO 00000KT 10SM OVC048 20/ A2979 RMK AO2 T0197
KVER 230735Z AUTO 00000KT 10SM OVC048 20/ A2980 RMK AO2 T0197
KVER 230715Z AUTO 00000KT 10SM OVC046 20/20 A2979 RMK AO2 T01980199
KVER 230655Z AUTO 25003KT 10SM OVC046 20/20 A2979 RMK AO2 P0001 T01970199
KVER 230635Z AUTO 25003KT 10SM OVC044 20/20 A2980 RMK AO2 LTG DSNT NW P0001 T01990200
KVER 230615Z AUTO 00000KT 10SM OVC044 20/20 A2981 RMK AO2 T02000200
KVER 230555Z AUTO 24003KT 10SM OVC042 20/ A2982 RMK AO2 60001 T0199 10349 20176 403490176
KVER 230535Z AUTO 23003KT 10SM OVC042 20/ A2983 RMK AO2 T0198
KVER 230515Z AUTO 24003KT 10SM OVC042 20/ A2983 RMK AO2 T0200
KVER 230455Z AUTO 00000KT 10SM OVC042 20/ A2982 RMK AO2 T0200
KVER 230435Z AUTO 00000KT 10SM SCT022 OVC042 20/ A2982 RMK AO2 T0200
KVER 230415Z AUTO 24003KT 10SM SCT022 OVC042 20/ A2981 RMK AO2 T0201
KVER 230355Z AUTO 00000KT 10SM SCT022 OVC042 20/ A2980 RMK AO2 T0201
KVER 230335Z AUTO 00000KT 10SM OVC040 20/20 A2980 RMK AO2 T02020204
KVER 230315Z AUTO 00000KT 10SM OVC038 20/21 A2980 RMK AO2 T02040205
KVER 230255Z AUTO 01003KT 10SM OVC038 21/21 A2978 RMK AO2 60001 T02050206
KVER 230235Z AUTO 00000KT 10SM OVC038 21/21 A2979 RMK AO2 T02050206
KVER 230215Z AUTO 00000KT 10SM OVC035 21/20 A2978 RMK AO2 T02060204
KVER 230155Z AUTO 00000KT 10SM OVC035 21/20 A2978 RMK AO2 P0001 T02070198
KVER 230135Z AUTO 00000KT 10SM OVC035 21/20 A2978 RMK AO2 P0001 T02090196
KVER 230115Z AUTO 35004KT 10SM SCT030 OVC037 21/19 A2977 RMK AO2 T02100192
KVER 230055Z AUTO 00000KT 10SM BKN033 OVC039 21/19 A2978 RMK AO2 T02120186
KVER 230035Z AUTO 31003KT 10SM OVC035 21/18 A2978 RMK AO2 T02130183
KVER 230015Z AUTO 31004KT 10SM SCT021 OVC037 22/18 A2978 RMK AO2 T02150178
KVER 222335Z AUTO 33003KT 10SM SCT019 BKN033 OVC039 22/18 A2978 RMK AO2 T02170179
KVER 222315Z AUTO 33006KT 10SM BKN037 BKN042 22/18 A2978 RMK AO2 T02170184
KVER 222255Z AUTO 34008KT 10SM SCT028 OVC037 22/18 A2978 RMK AO2 T02150182
KVER 222235Z AUTO 32006KT 10SM BKN029 OVC037 22/18 A2978 RMK AO2 T02190180
KVER 222215Z AUTO 29004KT 10SM SCT023 BKN031 OVC038 22/18 A2979 RMK AO2 T02160184
KVER 222155Z AUTO 31005KT 10SM BKN023 OVC029 21/19 A2979 RMK AO2 T02140186
KVER 222135Z AUTO 30005KT 10SM OVC023 21/19 A2980 RMK AO2 T02130188
KVER 222115Z AUTO 28003KT 10SM OVC027 21/19 A2979 RMK AO2 T02120193
KVER 222055Z AUTO 30003KT 10SM OVC028 21/20 A2980 RMK AO2 P0001 60001 T02100195
KVER 222035Z AUTO 33004KT 10SM SCT015 BKN026 OVC034 21/20 A2980 RMK AO2 P0001 T02120199
KVER 222015Z AUTO 33006KT 10SM SCT015 BKN021 OVC029 21/20 A2981 RMK AO2 T02140197
KVER 221955Z AUTO 36008KT 10SM BKN017 OVC023 22/19 A2981 RMK AO2 T02160194
KVER 221935Z AUTO 33004KT 10SM BKN019 OVC024 22/20 A2981 RMK AO2 T02170196
KVER 221915Z AUTO 34007G14KT 10SM BKN017 BKN025 OVC031 22/19 A2981 RMK AO2 T02210190
KVER 221855Z AUTO 29007KT 10SM BKN017 OVC025 22/19 A2981 RMK AO2 T02160190
KVER 221835Z AUTO 29009KT 10SM OVC017 21/20 A2982 RMK AO2 T02130199
KVER 221815Z AUTO 26005KT 10SM BKN015 OVC024 21/20 A2982 RMK AO2 T02130198
KVER 221755Z AUTO 30004KT 10SM OVC013 21/20 A2983 RMK AO2 60002 T02100202 10349 20176
KVER 221735Z AUTO 27004KT 10SM OVC013 21/20 A2983 RMK AO2 T02100204
KVER 221715Z AUTO 27005KT 10SM OVC013 21/21 A2982 RMK AO2 T02070206
KVER 221655Z AUTO 29006KT 10SM OVC010 20/20 A2982 RMK AO2 T02040204
KVER 221635Z AUTO 30005KT 10SM OVC010 20/ A2982 RMK AO2 T0196
KVER 221615Z AUTO 28007KT 250V320 10SM OVC010 19/ A2982 RMK AO2 T0193
KVER 221555Z AUTO 29006KT 10SM OVC010 19/ A2981 RMK AO2 T0193
KVER 221535Z AUTO 26006KT 10SM OVC010 20/ A2981 RMK AO2 T0199
KVER 221515Z AUTO 31006KT 10SM BKN013 OVC019 20/20 A2980 RMK AO2 T02020204
KVER 221455Z AUTO 30005KT 10SM OVC011 20/21 A2980 RMK AO2 P0001 60002 T02030205
KVER 221435Z AUTO 31006KT 10SM OVC011 20/ A2980 RMK AO2 T0200
KVER 221415Z AUTO 30006KT 10SM BKN009 OVC014 20/ A2980 RMK AO2 T0197
KVER 221355Z AUTO 31004KT 10SM BKN007 OVC015 20/ A2979 RMK AO2 T0195
KVER 221335Z AUTO 32004KT 10SM BKN007 OVC015 20/ A2979 RMK AO2 T0195
KVER 221315Z AUTO 30007KT 10SM SCT007 BKN015 OVC021 20/ A2979 RMK AO2 T0195
KVER 221255Z AUTO 32004KT 10SM BKN007 OVC021 20/ A2979 RMK AO2 P0001 T0195
KVER 221235Z AUTO 34007KT 10SM BKN007 OVC017 20/ A2978 RMK AO2 P0001 T0195
KVER 221215Z AUTO 32005KT 10SM SCT007 BKN011 OVC019 19/ A2978 RMK AO2 T0193
KVER 221155Z AUTO 31005KT 10SM BKN007 BKN011 OVC021 19/ A2978 RMK AO2 60004 70019 T0191 10349 20176
KVER 221135Z AUTO 31003KT 10SM OVC007 19/ A2978 RMK AO2 T0189
KVER 221115Z AUTO 30003KT 10SM OVC007 19/ A2978 RMK AO2 T0187
KVER 221055Z AUTO 00000KT 10SM OVC007 19/ A2977 RMK AO2 P0001 T0185
KVER 221035Z AUTO 30004KT 10SM OVC007 19/ A2976 RMK AO2 P0001 T0185
KVER 221015Z AUTO 00000KT 10SM BKN007 OVC047 18/ A2975 RMK AO2 T0184
KVER 220955Z AUTO 31004KT 10SM SCT047 18/ A2975 RMK AO2 P0001 T0182
KVER 220935Z AUTO 34004KT 10SM CLR 18/ A2974 RMK AO2 P0001 T0183
KVER 220855Z AUTO 33005KT 10SM BKN045 18/ A2973 RMK AO2 60002 T0184
KVER 220835Z AUTO 32004KT 10SM OVC047 18/ A2974 RMK AO2 T0182
KVER 220755Z AUTO 28004KT 10SM SCT045 18/ A2974 RMK AO2 P0001 T0180
KVER 220735Z AUTO 29003KT 10SM SCT018 SCT024 18/ A2974 RMK AO2 P0001 T0178
KVER 220715Z AUTO 26003KT 10SM SCT022 18/ A2974 RMK AO2 T0176
KVER 220655Z AUTO 27003KT 10SM CLR 18/ A2975 RMK AO2 P0001 T0177
KVER 220635Z AUTO 00000KT 10SM CLR 18/ A2974 RMK AO2 P0001 T0179
KVER 220615Z AUTO 25003KT 10SM CLR 18/ A2974 RMK AO2 T0180
KVER 220555Z AUTO 00000KT 10SM CLR 18/ A2975 RMK AO2 P0001 60006 T0180 10349 20180 403490180
KVER 220535Z AUTO 00000KT 10SM SCT017 SCT035 18/ A2975 RMK AO2 P0001 T0181
KVER 220515Z AUTO 00000KT 10SM SCT017 BKN035 18/ A2975 RMK AO2 P0001 T0182
KVER 220455Z AUTO 00000KT 10SM CLR 18/ A2975 RMK AO2 T0184
KVER 220435Z AUTO 00000KT 10SM SCT090 19/ A2975 RMK AO2 T0186
KVER 220415Z AUTO 31004KT 10SM BKN090 19/ A2975 RMK AO2 T0188
KVER 220355Z AUTO 30004KT 10SM OVC090 19/ A2976 RMK AO2 P0001 T0189
KVER 220335Z AUTO 31003KT 10SM OVC100 19/ A2976 RMK AO2 T0188
KVER 220315Z AUTO 00000KT 10SM OVC100 19/ A2975 RMK AO2 T0188
KVER 220255Z AUTO 00000KT 10SM BKN100 19/ A2975 RMK AO2 P0001 60004 T0187
KVER 220235Z AUTO 30003KT 10SM SCT037 SCT085 SCT110 19/ A2975 RMK AO2 T0187
KVER 220215Z AUTO 00000KT 10SM SCT039 SCT044 SCT060 19/ A2973 RMK AO2 T0188
KVER 220155Z AUTO 35004KT 10SM SCT045 SCT060 19/ A2973 RMK AO2 P0001 T0189
KVER 220135Z AUTO 31003KT 10SM SCT110 19/ A2972 RMK AO2 T0191
KVER 220115Z AUTO 34004KT 10SM SCT042 SCT120 19/ A2971 RMK AO2 T0193
KVER 220055Z AUTO 34006KT 10SM SCT008 BKN042 BKN065 20/ A2971 RMK AO2 P0002 T0195
KVER 220035Z AUTO 32004KT 10SM SCT008 SCT031 BKN065 20/ A2971 RMK AO2 P0001 T0197
KVER 220015Z AUTO 32003KT 10SM SCT006 BKN047 OVC065 20/ A2970 RMK AO2 P0001 T0196
KVER 212355Z AUTO 29003KT 7SM SCT006 BKN013 OVC048 19/ A2970 RMK AO2 P0001 60006 T0194 10349 20191